createdAt,value
2023-02-11T00:02:33.145Z,99184.66
2023-02-11T00:05:34.978Z,99175.97
2023-02-11T00:08:36.846Z,99173.38
2023-02-11T00:11:38.321Z,99173.41
2023-02-11T00:14:39.794Z,99170.06
2023-02-11T00:17:41.353Z,99173.63
2023-02-11T00:20:43.902Z,99166.06
2023-02-11T00:23:46.399Z,99168.81
2023-02-11T00:26:47.876Z,99172.31
2023-02-11T00:29:49.405Z,99161.13
2023-02-11T00:32:50.921Z,99161.91
2023-02-11T00:35:52.818Z,99161.06
2023-02-11T00:38:56.642Z,99168.88
2023-02-11T00:41:58.876Z,99160.19
2023-02-11T00:45:00.338Z,99165.66
2023-02-11T00:48:01.959Z,99162.00
2023-02-11T00:51:11.640Z,99160.19
2023-02-11T00:54:13.193Z,99150.97
2023-02-11T00:57:14.696Z,99154.63
2023-02-11T01:00:16.671Z,99156.41
2023-02-11T01:03:19.564Z,99157.28
2023-02-11T01:06:21.127Z,99157.28
2023-02-11T01:09:22.704Z,99159.09
2023-02-11T01:12:24.560Z,99158.00
2023-02-11T01:15:26.111Z,99167.44
2023-02-11T01:18:27.867Z,99164.91
2023-02-11T01:21:29.316Z,99161.72
2023-02-11T01:24:30.896Z,99173.09
2023-02-11T01:27:32.561Z,99169.72
2023-02-11T01:30:34.032Z,99157.84
2023-02-11T01:33:35.494Z,99166.41
2023-02-11T01:36:37.235Z,99168.09
2023-02-11T01:39:38.847Z,99172.44
2023-02-11T01:42:40.383Z,99161.97
2023-02-11T01:45:56.005Z,99161.91
2023-02-11T01:49:04.646Z,99148.97
2023-02-11T01:52:15.077Z,99154.13
2023-02-11T01:55:35.232Z,99158.56
2023-02-11T01:58:41.066Z,99155.78
2023-02-11T02:01:49.602Z,99156.53
2023-02-11T02:05:08.040Z,99150.50
2023-02-11T02:08:36.060Z,99150.50
2023-02-11T02:11:37.882Z,99148.06
2023-02-11T02:14:42.422Z,99143.94
2023-02-11T02:17:53.993Z,99144.25
2023-02-11T02:21:16.941Z,99141.63
2023-02-11T02:24:56.610Z,99138.88
2023-02-11T02:28:19.757Z,99140.59
2023-02-11T02:31:36.578Z,99135.53
2023-02-11T02:34:59.901Z,99132.16
2023-02-11T02:38:08.564Z,99116.66
2023-02-11T02:41:13.815Z,99111.44
2023-02-11T02:44:15.284Z,99112.38
2023-02-11T02:47:16.900Z,99107.94
2023-02-11T02:50:26.338Z,99100.16
2023-02-11T02:53:39.826Z,99106.16
2023-02-11T02:57:09.037Z,99101.03
2023-02-11T03:00:26.590Z,99098.56
2023-02-11T03:03:34.018Z,99093.38
2023-02-11T03:07:00.405Z,99097.69
2023-02-11T03:10:07.880Z,99089.13
2023-02-11T03:13:10.146Z,99082.28
2023-02-11T03:16:17.170Z,99083.19
2023-02-11T03:19:22.685Z,99087.44
2023-02-11T03:23:02.094Z,99091.66
2023-02-11T03:26:17.877Z,99086.53
2023-02-11T03:29:36.084Z,99075.03
2023-02-11T03:32:49.910Z,99063.72
2023-02-11T03:36:00.324Z,99067.97
2023-02-11T03:39:04.798Z,99075.00
2023-02-11T03:42:10.672Z,99063.75
2023-02-11T03:45:15.755Z,99049.34
2023-02-11T03:48:25.182Z,99057.16
2023-02-11T03:51:29.331Z,99056.28
2023-02-11T03:54:31.227Z,99047.94
2023-02-11T03:57:34.628Z,99048.81
2023-02-11T04:00:39.737Z,99046.09
2023-02-11T04:03:41.342Z,99045.09
2023-02-11T04:06:43.351Z,99048.72
2023-02-11T04:09:44.825Z,99055.69
2023-02-11T04:12:46.355Z,99058.81
2023-02-11T04:15:48.943Z,99044.19
2023-02-11T04:18:50.575Z,99044.25
2023-02-11T04:21:52.067Z,99053.09
2023-02-11T04:24:53.508Z,99054.78
2023-02-11T04:27:55.103Z,99058.88
2023-02-11T04:30:57.331Z,99058.19
2023-02-11T04:33:58.785Z,99070.28
2023-02-11T04:37:00.282Z,99069.59
2023-02-11T04:40:01.849Z,99072.19
2023-02-11T04:43:03.411Z,99072.19
2023-02-11T04:46:05.159Z,99083.47
2023-02-11T04:49:06.663Z,99091.22
2023-02-11T04:52:08.593Z,99091.16
2023-02-11T04:55:10.171Z,99094.69
2023-02-11T04:58:11.674Z,99102.38
2023-02-11T05:01:15.652Z,99110.09
2023-02-11T05:04:17.274Z,99119.56
2023-02-11T05:07:18.797Z,99117.13
2023-02-11T05:10:20.275Z,99132.63
2023-02-11T05:13:22.192Z,99125.78
2023-02-11T05:16:24.163Z,99124.09
2023-02-11T05:19:25.713Z,99133.56
2023-02-11T05:22:27.190Z,99126.69
2023-02-11T05:25:28.660Z,99118.00
2023-02-11T05:28:30.185Z,99100.69
2023-02-11T05:31:32.751Z,99109.09
2023-02-11T05:34:34.978Z,99102.28
2023-02-11T05:37:36.603Z,99108.22
2023-02-11T05:40:38.057Z,99083.31
2023-02-11T05:43:39.728Z,99084.91
2023-02-11T05:46:41.239Z,99073.91
2023-02-11T05:49:42.809Z,99059.38
2023-02-11T05:52:44.402Z,99067.91
2023-02-11T05:55:46.064Z,99059.16
2023-02-11T05:58:47.612Z,99062.66
2023-02-11T06:01:49.089Z,99062.59
2023-02-11T06:04:50.531Z,99071.06
2023-02-11T06:07:52.386Z,99061.41
2023-02-11T06:10:53.834Z,99062.94
2023-02-11T06:13:55.376Z,99064.59
2023-02-11T06:16:56.814Z,99055.03
2023-02-11T06:19:58.399Z,99057.63
2023-02-11T06:23:00.162Z,99067.03
2023-02-11T06:26:03.410Z,99062.66
2023-02-11T06:29:04.987Z,99059.22
2023-02-11T06:32:06.702Z,99062.50
2023-02-11T06:35:11.775Z,99055.53
2023-02-11T06:38:13.651Z,99039.25
2023-02-11T06:41:17.121Z,99033.25
2023-02-11T06:44:18.561Z,99035.63
2023-02-11T06:47:20.077Z,99034.09
2023-02-11T06:50:21.701Z,99028.91
2023-02-11T06:53:23.149Z,99019.22
2023-02-11T06:56:27.264Z,99025.06
2023-02-11T06:59:28.728Z,99021.69
2023-02-11T07:02:30.286Z,99002.78
2023-02-11T07:05:34.139Z,99009.88
2023-02-11T07:08:37.531Z,99007.91
2023-02-11T07:11:39.213Z,99018.06
2023-02-11T07:14:40.708Z,99015.03
2023-02-11T07:17:42.223Z,99010.38
2023-02-11T07:20:43.845Z,99030.34
2023-02-11T07:23:45.750Z,99035.75
2023-02-11T07:26:47.276Z,99036.00
2023-02-11T07:29:48.730Z,99030.13
2023-02-11T07:32:50.274Z,99039.84
2023-02-11T07:35:52.054Z,99046.94
2023-02-11T07:38:53.801Z,99061.84
2023-02-11T07:41:55.427Z,99068.50
2023-02-11T07:44:57.624Z,99062.25
2023-02-11T07:47:59.113Z,99065.75
2023-02-11T07:51:15.598Z,99076.19
2023-02-11T07:54:17.531Z,99087.91
2023-02-11T07:57:19.131Z,99091.59
2023-02-11T08:00:21.278Z,99100.66
2023-02-11T08:03:22.874Z,99102.09
2023-02-11T08:06:26.732Z,99105.53
2023-02-11T08:09:28.279Z,99096.56
2023-02-11T08:12:30.269Z,99105.59
2023-02-11T08:15:31.743Z,99117.22
2023-02-11T08:18:34.660Z,99102.00
2023-02-11T08:21:36.382Z,99108.69
2023-02-11T08:24:37.992Z,99107.09
2023-02-11T08:27:39.483Z,99097.91
2023-02-11T08:30:40.946Z,99106.84
2023-02-11T08:33:42.476Z,99105.44
2023-02-11T08:36:44.924Z,99108.47
2023-02-11T08:39:47.385Z,99103.00
2023-02-11T08:42:49.051Z,99108.59
2023-02-11T08:45:50.937Z,99106.44
2023-02-11T08:48:53.216Z,99106.84
2023-02-11T08:51:56.227Z,99103.53
2023-02-11T08:54:57.754Z,99103.47
2023-02-11T08:57:59.307Z,99096.41
2023-02-11T09:01:01.023Z,99091.03
2023-02-11T09:04:02.626Z,99099.38
2023-02-11T09:07:04.744Z,99095.81
2023-02-11T09:10:06.626Z,99095.81
2023-02-11T09:13:08.634Z,99104.13
2023-02-11T09:16:20.991Z,99107.16
2023-02-11T09:19:23.214Z,99101.81
2023-02-11T09:22:24.786Z,99106.13
2023-02-11T09:25:26.784Z,99102.69
2023-02-11T09:28:28.364Z,99104.91
2023-02-11T09:31:32.331Z,99086.38
2023-02-11T09:34:33.902Z,99109.91
2023-02-11T09:37:37.339Z,99104.06
2023-02-11T09:40:43.876Z,99111.31
2023-02-11T09:43:48.120Z,99112.91
2023-02-11T09:46:56.567Z,99110.84
2023-02-11T09:50:10.501Z,99113.94
2023-02-11T09:53:22.095Z,99107.91
2023-02-11T09:56:24.962Z,99103.16
2023-02-11T09:59:26.573Z,99110.59
2023-02-11T10:02:50.115Z,99106.13
2023-02-11T10:06:20.055Z,99106.63
2023-02-11T10:09:42.870Z,99112.94
2023-02-11T10:13:01.704Z,99099.50
2023-02-11T10:16:09.377Z,99107.69
2023-02-11T10:19:16.689Z,99115.59
2023-02-11T10:22:46.077Z,99119.09
2023-02-11T10:25:52.871Z,99101.00
2023-02-11T10:28:55.932Z,99095.03
2023-02-11T10:32:00.520Z,99089.25
2023-02-11T10:35:10.179Z,99092.63
2023-02-11T10:38:12.057Z,99093.59
2023-02-11T10:41:19.076Z,99093.78
2023-02-11T10:44:28.831Z,99079.38
2023-02-11T10:47:37.461Z,99081.59
2023-02-11T10:50:38.944Z,99078.22
2023-02-11T10:53:40.488Z,99073.13
2023-02-11T10:56:50.221Z,99072.44
2023-02-11T10:59:59.236Z,99053.28
2023-02-11T11:03:04.861Z,99054.03
2023-02-11T11:06:11.517Z,99055.78
2023-02-11T11:09:30.261Z,99053.66
2023-02-11T11:12:42.150Z,99047.63
2023-02-11T11:15:44.054Z,99039.16
2023-02-11T11:18:47.822Z,99036.09
2023-02-11T11:21:54.596Z,99047.16
2023-02-11T11:24:57.424Z,99037.91
2023-02-11T11:28:01.027Z,99026.56
2023-02-11T11:31:02.813Z,99024.22
2023-02-11T11:34:26.954Z,99028.88
2023-02-11T11:37:38.826Z,99024.69
2023-02-11T11:40:40.288Z,99014.28
2023-02-11T11:43:54.497Z,99008.47
2023-02-11T11:47:15.746Z,99016.88
2023-02-11T11:50:27.678Z,99015.59
2023-02-11T11:53:50.607Z,99007.56
2023-02-11T11:57:03.236Z,99000.06
2023-02-11T12:00:05.356Z,98995.56
2023-02-11T12:03:51.986Z,98999.69
2023-02-11T12:07:04.967Z,98990.81
2023-02-11T12:10:30.068Z,98981.19
2023-02-11T12:13:50.466Z,98977.78
2023-02-11T12:17:16.276Z,98976.75
2023-02-11T12:20:55.463Z,98975.41
2023-02-11T12:24:29.562Z,98974.47
2023-02-11T12:27:56.926Z,98971.22
2023-02-11T12:31:23.806Z,98973.66
2023-02-11T12:34:37.521Z,98976.09
2023-02-11T12:37:58.870Z,98980.72
2023-02-11T12:41:14.685Z,98970.06
2023-02-11T12:44:31.050Z,98968.06
2023-02-11T12:47:53.194Z,98960.16
2023-02-11T12:51:08.640Z,98964.34
2023-02-11T12:54:10.074Z,98969.00
2023-02-11T12:57:20.111Z,98967.19
2023-02-11T13:00:31.182Z,98969.59
2023-02-11T13:03:48.392Z,98964.44
2023-02-11T13:06:57.360Z,98951.88
2023-02-11T13:10:07.624Z,98965.53
2023-02-11T13:13:46.568Z,98961.97
2023-02-11T13:16:50.601Z,98957.53
2023-02-11T13:19:59.018Z,98961.84
2023-02-11T13:23:14.112Z,98959.22
2023-02-11T13:26:33.580Z,98949.50
2023-02-11T13:30:23.367Z,98946.75
2023-02-11T13:33:45.899Z,98955.97
2023-02-11T13:36:55.740Z,98956.47
2023-02-11T13:40:04.235Z,98955.00
2023-02-11T13:43:21.770Z,98950.22
2023-02-11T13:46:23.605Z,98952.81
2023-02-11T13:49:36.204Z,98947.69
2023-02-11T13:52:39.146Z,98945.28
2023-02-11T13:55:45.013Z,98942.28
2023-02-11T13:58:48.303Z,98945.78
2023-02-11T14:02:12.813Z,98941.34
2023-02-11T14:05:48.743Z,98930.81
2023-02-11T14:09:13.286Z,98935.47
2023-02-11T14:12:31.497Z,98932.09
2023-02-11T14:15:40.182Z,98923.50
2023-02-11T14:18:44.543Z,98926.34
2023-02-11T14:21:47.013Z,98925.16
2023-02-11T14:25:00.996Z,98921.41
2023-02-11T14:28:23.219Z,98912.94
2023-02-11T14:31:31.753Z,98909.06
2023-02-11T14:34:51.567Z,98913.81
2023-02-11T14:38:19.061Z,98907.94
2023-02-11T14:41:25.004Z,98911.88
2023-02-11T14:44:30.112Z,98904.34
2023-02-11T14:47:45.009Z,98906.84
2023-02-11T14:50:51.983Z,98901.19
2023-02-11T14:54:00.556Z,98906.56
2023-02-11T14:57:19.227Z,98910.06
2023-02-11T15:00:22.636Z,98907.88
2023-02-11T15:03:38.780Z,98907.25
2023-02-11T15:06:45.085Z,98916.66
2023-02-11T15:09:50.459Z,98919.59
2023-02-11T15:12:53.496Z,98922.41
2023-02-11T15:16:00.057Z,98930.34
2023-02-11T15:19:07.109Z,98933.84
2023-02-11T15:22:18.776Z,98927.66
2023-02-11T15:25:21.323Z,98934.13
2023-02-11T15:28:26.926Z,98930.56
2023-02-11T15:31:29.349Z,98932.47
2023-02-11T15:34:32.303Z,98935.22
2023-02-11T15:37:33.756Z,98935.22
2023-02-11T15:40:37.265Z,98936.81
2023-02-11T15:43:47.906Z,98936.06
2023-02-11T15:46:49.509Z,98934.97
2023-02-11T15:49:51.301Z,98938.13
2023-02-11T15:52:53.762Z,98940.59
2023-02-11T15:56:19.994Z,98939.66
2023-02-11T15:59:38.277Z,98939.78
2023-02-11T16:02:45.109Z,98944.47
2023-02-11T16:05:46.639Z,98941.94
2023-02-11T16:09:21.858Z,98937.00
2023-02-11T16:12:27.082Z,98952.19
2023-02-11T16:15:34.628Z,98952.25
2023-02-11T16:18:40.183Z,98949.84
2023-02-11T16:21:45.251Z,98951.06
2023-02-11T16:24:49.669Z,98954.38
2023-02-11T16:27:53.252Z,98952.91
2023-02-11T16:30:56.179Z,98955.34
2023-02-11T16:33:57.761Z,98960.91
2023-02-11T16:36:59.285Z,98966.50
2023-02-11T16:40:00.860Z,98974.03
2023-02-11T16:43:02.362Z,98976.16
2023-02-11T16:46:04.512Z,98979.25
2023-02-11T16:49:31.294Z,98972.84
2023-02-11T16:52:33.480Z,98986.22
2023-02-11T16:55:35.139Z,98986.75
2023-02-11T16:58:36.655Z,98996.19
2023-02-11T17:01:40.500Z,98998.13
2023-02-11T17:04:42.681Z,98992.31
2023-02-11T17:07:44.302Z,98999.25
2023-02-11T17:10:46.299Z,99010.94
2023-02-11T17:13:48.719Z,99002.75
2023-02-11T17:16:50.597Z,99011.97
2023-02-11T17:19:52.188Z,99014.78
2023-02-11T17:22:54.530Z,99020.91
2023-02-11T17:25:56.905Z,99024.34
2023-02-11T17:28:58.602Z,99031.34
2023-02-11T17:32:00.379Z,99024.50
2023-02-11T17:35:02.050Z,99019.53
2023-02-11T17:38:03.810Z,99025.84
2023-02-11T17:41:05.464Z,99027.94
2023-02-11T17:44:07.947Z,99034.41
2023-02-11T17:47:09.578Z,99031.13
2023-02-11T17:50:11.299Z,99027.31
2023-02-11T17:53:13.972Z,99026.63
2023-02-11T17:56:16.210Z,99034.91
2023-02-11T17:59:17.824Z,99028.34
2023-02-11T18:02:19.504Z,99032.34
2023-02-11T18:05:21.096Z,99026.84
2023-02-11T18:08:22.539Z,99030.00
2023-02-11T18:11:25.241Z,99036.25
2023-02-11T18:14:27.266Z,99031.16
2023-02-11T18:17:29.229Z,99024.31
2023-02-11T18:20:31.282Z,99031.59
2023-02-11T18:23:32.811Z,99042.25
2023-02-11T18:26:35.420Z,99043.31
2023-02-11T18:29:37.053Z,99041.16
2023-02-11T18:32:38.564Z,99040.59
2023-02-11T18:35:41.365Z,99042.59
2023-02-11T18:38:45.995Z,99043.53
2023-02-11T18:41:47.555Z,99044.91
2023-02-11T18:44:49.110Z,99040.16
2023-02-11T18:47:50.607Z,99046.06
2023-02-11T18:50:52.278Z,99044.69
2023-02-11T18:53:54.666Z,99044.91
2023-02-11T18:56:57.302Z,99046.13
2023-02-11T18:59:58.871Z,99044.03
2023-02-11T19:03:00.381Z,99054.19
2023-02-11T19:06:02.053Z,99063.41
2023-02-11T19:09:09.861Z,99053.34
2023-02-11T19:12:11.945Z,99061.22
2023-02-11T19:18:39.613Z,99064.53
2023-02-11T19:21:43.627Z,99067.56
2023-02-11T19:24:46.325Z,99063.84
2023-02-11T19:27:47.882Z,99066.84
2023-02-11T19:30:49.430Z,99072.19
2023-02-11T19:33:51.564Z,99079.09
2023-02-11T19:36:54.248Z,99074.94
2023-02-11T19:39:55.932Z,99076.97
2023-02-11T19:42:57.512Z,99078.84
2023-02-11T19:46:01.555Z,99076.44
2023-02-11T19:49:04.565Z,99073.34
2023-02-11T19:52:06.022Z,99073.09
2023-02-11T19:55:08.173Z,99073.16
2023-02-11T19:58:09.784Z,99070.50
2023-02-11T20:01:12.870Z,99074.13
2023-02-11T20:04:15.897Z,99068.41
2023-02-11T20:07:17.453Z,99052.94
2023-02-11T20:10:19.000Z,99063.03
2023-02-11T20:13:20.591Z,99067.16
2023-02-11T20:16:36.819Z,99061.06
2023-02-11T20:19:46.312Z,99050.41
2023-02-11T20:22:47.750Z,99047.88
2023-02-11T20:25:49.421Z,99049.88
2023-02-11T20:28:53.211Z,99046.31
2023-02-11T20:31:54.936Z,99043.78
2023-02-11T20:34:56.636Z,99041.50
2023-02-11T20:37:58.080Z,99043.91
2023-02-11T20:41:24.637Z,99041.25
2023-02-11T20:44:27.459Z,99047.44
2023-02-11T20:47:39.073Z,99040.34
2023-02-11T20:50:40.727Z,99041.19
2023-02-11T20:53:47.893Z,99041.97
2023-02-11T20:56:53.601Z,99038.31
2023-02-11T20:59:55.218Z,99032.59
2023-02-11T21:02:56.899Z,99033.66
2023-02-11T21:05:59.075Z,99033.66
2023-02-11T21:09:00.919Z,99039.47
2023-02-11T21:12:03.079Z,99045.66
2023-02-11T21:15:12.661Z,99040.53
2023-02-11T21:18:14.356Z,99045.06
2023-02-11T21:21:17.070Z,99051.03
2023-02-11T21:24:18.608Z,99057.28
2023-02-11T21:27:20.063Z,99061.03
2023-02-11T21:30:21.619Z,99057.66
2023-02-11T21:33:24.838Z,99064.56
2023-02-11T21:36:28.963Z,99062.94
2023-02-11T21:39:37.364Z,99058.38
2023-02-11T21:42:38.950Z,99056.03
2023-02-11T21:45:46.924Z,99067.94
2023-02-11T21:48:53.650Z,99067.06
2023-02-11T21:51:55.204Z,99072.19
2023-02-11T21:54:58.681Z,99069.19
2023-02-11T21:58:01.550Z,99068.53
2023-02-11T22:01:20.219Z,99079.06
2023-02-11T22:04:21.731Z,99089.72
2023-02-11T22:07:24.317Z,99088.88
2023-02-11T22:10:25.805Z,99089.56
2023-02-11T22:13:28.048Z,99093.03
2023-02-11T22:16:29.972Z,99088.78
2023-02-11T22:19:34.454Z,99083.88
2023-02-11T22:22:36.360Z,99088.09
2023-02-11T22:25:38.008Z,99090.09
2023-02-11T22:28:40.926Z,99087.69
2023-02-11T22:31:42.948Z,99079.75
2023-02-11T22:34:44.720Z,99086.91
2023-02-11T22:37:46.706Z,99083.63
2023-02-11T22:40:48.552Z,99087.13
2023-02-11T22:43:50.623Z,99073.47
2023-02-11T22:46:53.947Z,99085.53
2023-02-11T22:49:56.379Z,99093.53
2023-02-11T22:52:58.085Z,99085.91
2023-02-11T22:56:08.563Z,99088.59
2023-02-11T22:59:15.873Z,99087.81
2023-02-11T23:02:17.690Z,99083.66
2023-02-11T23:05:19.588Z,99089.63
2023-02-11T23:08:21.131Z,99093.13
2023-02-11T23:11:25.349Z,99098.44
2023-02-11T23:14:26.845Z,99097.06
2023-02-11T23:17:29.123Z,99098.72
2023-02-11T23:20:30.795Z,99097.75
2023-02-11T23:23:32.919Z,99104.84
2023-02-11T23:26:35.126Z,99102.22
2023-02-11T23:29:36.773Z,99099.81
2023-02-11T23:32:39.286Z,99100.91
2023-02-11T23:35:40.988Z,99110.31
2023-02-11T23:38:42.979Z,99099.25
2023-02-11T23:41:45.386Z,99100.13
2023-02-11T23:44:46.909Z,99101.75
2023-02-11T23:47:48.558Z,99093.78
2023-02-11T23:50:50.196Z,99088.59
2023-02-11T23:53:53.020Z,99078.47
2023-02-11T23:56:55.183Z,99075.09
2023-02-11T23:59:57.449Z,99066.72
